createdAt,value
2018-09-12T00:00:47.457Z,13.21
2018-09-12T00:03:16.240Z,13.27
2018-09-12T00:05:44.793Z,13.40
2018-09-12T00:08:13.317Z,13.39
2018-09-12T00:10:41.889Z,13.20
2018-09-12T00:13:10.424Z,12.79
2018-09-12T00:15:39.028Z,13.14
2018-09-12T00:18:07.204Z,13.16
2018-09-12T00:20:35.730Z,13.09
2018-09-12T00:23:04.290Z,13.15
2018-09-12T00:25:32.842Z,13.24
2018-09-12T00:28:01.569Z,13.32
2018-09-12T00:30:30.117Z,12.98
2018-09-12T00:32:58.939Z,12.92
2018-09-12T00:35:27.469Z,12.91
2018-09-12T00:37:56.014Z,12.19
2018-09-12T00:40:24.566Z,12.33
2018-09-12T00:42:53.112Z,12.64
2018-09-12T00:45:21.648Z,12.74
2018-09-12T00:47:50.200Z,12.71
2018-09-12T00:50:18.721Z,12.83
2018-09-12T00:52:47.277Z,12.87
2018-09-12T00:55:15.899Z,12.71
2018-09-12T00:57:44.465Z,12.62
2018-09-12T01:00:13.096Z,12.84
2018-09-12T01:02:41.755Z,12.62
2018-09-12T01:05:10.613Z,12.66
2018-09-12T01:07:39.162Z,12.62
2018-09-12T01:10:07.729Z,12.64
2018-09-12T01:12:36.301Z,12.62
2018-09-12T01:15:04.945Z,12.60
2018-09-12T01:17:33.484Z,12.62
2018-09-12T01:20:02.000Z,12.46
2018-09-12T01:22:30.599Z,12.52
2018-09-12T01:24:59.124Z,12.46
2018-09-12T01:27:28.069Z,12.51
2018-09-12T01:29:56.601Z,12.75
2018-09-12T01:32:25.213Z,12.70
2018-09-12T01:34:53.728Z,12.48
2018-09-12T01:37:22.283Z,12.32
2018-09-12T01:39:50.805Z,12.53
2018-09-12T01:42:19.386Z,12.66
2018-09-12T01:44:48.066Z,12.67
2018-09-12T01:47:16.621Z,12.61
2018-09-12T01:49:45.153Z,12.53
2018-09-12T01:52:13.700Z,12.55
2018-09-12T01:54:42.226Z,12.57
2018-09-12T01:57:10.780Z,12.45
2018-09-12T01:59:39.304Z,12.47
2018-09-12T02:02:07.880Z,12.44
2018-09-12T02:04:36.384Z,12.55
2018-09-12T02:07:04.885Z,12.52
2018-09-12T02:09:33.429Z,12.50
2018-09-12T02:12:01.924Z,12.42
2018-09-12T02:14:30.748Z,12.59
2018-09-12T02:16:59.241Z,12.40
2018-09-12T02:19:27.769Z,12.45
2018-09-12T02:21:56.276Z,12.43
2018-09-12T02:24:24.889Z,12.60
2018-09-12T02:26:53.466Z,12.66
2018-09-12T02:29:22.253Z,12.67
2018-09-12T02:31:50.757Z,12.58
2018-09-12T02:34:19.277Z,12.62
2018-09-12T02:36:47.777Z,12.73
2018-09-12T02:39:16.306Z,12.54
2018-09-12T02:41:44.825Z,12.73
2018-09-12T02:44:13.357Z,12.69
2018-09-12T02:46:41.868Z,12.70
2018-09-12T02:49:10.419Z,12.57
2018-09-12T02:51:38.917Z,12.74
2018-09-12T02:54:07.469Z,12.48
2018-09-12T02:56:36.013Z,12.45
2018-09-12T02:59:04.586Z,12.62
2018-09-12T03:01:33.105Z,12.50
2018-09-12T03:04:01.640Z,12.49
2018-09-12T03:06:30.131Z,12.26
2018-09-12T03:08:58.657Z,12.43
2018-09-12T03:11:27.169Z,12.25
2018-09-12T03:13:56.140Z,12.50
2018-09-12T03:16:24.639Z,12.43
2018-09-12T03:18:53.158Z,12.41
2018-09-12T03:21:21.650Z,12.53
2018-09-12T03:23:50.185Z,12.43
2018-09-12T03:26:18.689Z,12.43
2018-09-12T03:28:47.228Z,12.27
2018-09-12T03:31:16.057Z,12.33
2018-09-12T03:33:44.921Z,12.30
2018-09-12T03:36:13.664Z,12.44
2018-09-12T03:38:42.199Z,12.32
2018-09-12T03:41:10.700Z,12.35
2018-09-12T03:43:39.275Z,12.16
2018-09-12T03:46:08.128Z,12.09
2018-09-12T03:48:36.925Z,12.15
2018-09-12T03:51:05.472Z,12.09
2018-09-12T03:53:33.975Z,12.08
2018-09-12T03:56:02.509Z,12.13
2018-09-12T03:58:31.017Z,12.02
2018-09-12T04:00:59.551Z,12.01
2018-09-12T04:03:28.065Z,11.91
2018-09-12T04:05:56.604Z,11.95
2018-09-12T04:08:25.117Z,12.02
2018-09-12T04:10:53.665Z,11.88
2018-09-12T04:13:22.183Z,11.85
2018-09-12T04:15:50.729Z,11.83
2018-09-12T04:18:19.242Z,11.90
2018-09-12T04:20:47.776Z,11.96
2018-09-12T04:23:16.304Z,11.81
2018-09-12T04:25:46.723Z,11.97
2018-09-12T04:28:15.338Z,11.82
2018-09-12T04:30:43.890Z,11.83
2018-09-12T04:33:12.662Z,11.95
2018-09-12T04:35:41.209Z,11.95
2018-09-12T04:38:09.855Z,11.86
2018-09-12T04:40:38.448Z,11.81
2018-09-12T04:43:07.863Z,11.96
2018-09-12T04:45:36.693Z,11.86
2018-09-12T04:48:05.225Z,11.90
2018-09-12T04:50:33.796Z,11.87
2018-09-12T04:53:02.333Z,11.76
2018-09-12T04:55:31.080Z,11.79
2018-09-12T04:58:00.218Z,11.81
2018-09-12T05:00:29.280Z,11.62
2018-09-12T05:02:57.806Z,11.55
2018-09-12T05:05:26.412Z,11.73
2018-09-12T05:07:54.937Z,11.77
2018-09-12T05:10:23.571Z,11.78
2018-09-12T05:12:52.121Z,11.83
2018-09-12T05:15:20.690Z,11.91
2018-09-12T05:17:49.383Z,11.91
2018-09-12T05:20:19.739Z,11.72
2018-09-12T05:22:48.289Z,11.93
2018-09-12T05:25:16.813Z,11.93
2018-09-12T05:27:45.359Z,11.82
2018-09-12T05:30:13.956Z,11.91
2018-09-12T05:32:42.512Z,12.03
2018-09-12T05:35:11.097Z,12.11
2018-09-12T05:37:39.640Z,12.11
2018-09-12T05:40:08.172Z,12.10
2018-09-12T05:42:37.489Z,11.80
2018-09-12T05:45:06.053Z,11.78
2018-09-12T05:47:34.612Z,12.06
2018-09-12T05:50:03.499Z,12.26
2018-09-12T05:52:32.012Z,12.21
2018-09-12T05:55:00.533Z,12.24
2018-09-12T05:57:29.097Z,12.23
2018-09-12T05:59:57.676Z,12.23
2018-09-12T06:02:26.245Z,12.39
2018-09-12T06:04:54.785Z,12.44
2018-09-12T06:07:23.399Z,12.48
2018-09-12T06:09:51.913Z,12.56
2018-09-12T06:12:23.434Z,12.65
2018-09-12T06:14:51.945Z,12.66
2018-09-12T06:17:20.500Z,12.74
2018-09-12T06:19:49.101Z,12.76
2018-09-12T06:22:17.699Z,12.70
2018-09-12T06:24:46.188Z,12.82
2018-09-12T06:27:14.824Z,12.91
2018-09-12T06:29:43.353Z,12.99
2018-09-12T06:32:12.177Z,13.07
2018-09-12T06:34:40.753Z,13.22
2018-09-12T06:37:09.287Z,13.30
2018-09-12T06:39:37.846Z,13.22
2018-09-12T06:42:06.395Z,13.41
2018-09-12T06:44:35.000Z,13.46
2018-09-12T06:47:03.492Z,13.59
2018-09-12T06:49:32.083Z,13.64
2018-09-12T06:52:00.703Z,13.83
2018-09-12T06:54:29.319Z,13.88
2018-09-12T06:56:57.930Z,13.95
2018-09-12T06:59:26.485Z,13.97
2018-09-12T07:01:55.021Z,14.03
2018-09-12T07:04:23.573Z,14.19
2018-09-12T07:06:52.169Z,14.35
2018-09-12T07:09:20.741Z,14.39
2018-09-12T07:11:49.270Z,14.50
2018-09-12T07:14:17.919Z,14.59
2018-09-12T07:16:46.377Z,14.75
2018-09-12T07:19:14.940Z,14.89
2018-09-12T07:21:43.472Z,15.01
2018-09-12T07:24:12.013Z,15.11
2018-09-12T07:26:40.539Z,15.24
2018-09-12T07:29:09.124Z,15.33
2018-09-12T07:31:37.648Z,15.40
2018-09-12T07:34:06.221Z,15.55
2018-09-12T07:36:34.730Z,15.65
2018-09-12T07:39:03.417Z,15.82
2018-09-12T07:41:31.975Z,15.93
2018-09-12T07:44:00.635Z,16.01
2018-09-12T07:46:29.168Z,16.13
2018-09-12T07:48:58.012Z,16.22
2018-09-12T07:51:26.542Z,16.37
2018-09-12T07:53:55.104Z,16.45
2018-09-12T07:56:23.656Z,16.54
2018-09-12T07:58:52.273Z,16.60
2018-09-12T08:01:20.801Z,16.75
2018-09-12T08:03:49.712Z,16.84
2018-09-12T08:06:18.338Z,16.96
2018-09-12T08:08:46.864Z,17.04
2018-09-12T08:11:15.393Z,17.24
2018-09-12T08:13:44.690Z,17.28
2018-09-12T08:16:13.279Z,17.47
2018-09-12T08:18:41.819Z,17.46
2018-09-12T08:21:11.457Z,17.49
2018-09-12T08:23:40.297Z,17.58
2018-09-12T08:26:09.545Z,17.71
2018-09-12T08:28:38.081Z,17.74
2018-09-12T08:31:06.708Z,17.78
2018-09-12T08:33:35.225Z,17.99
2018-09-12T08:36:03.789Z,17.98
2018-09-12T08:38:32.463Z,18.13
2018-09-12T08:41:01.032Z,18.19
2018-09-12T08:43:29.550Z,18.20
2018-09-12T08:45:58.106Z,18.34
2018-09-12T08:48:26.623Z,18.46
2018-09-12T08:50:55.177Z,18.55
2018-09-12T08:53:23.713Z,18.60
2018-09-12T08:55:52.581Z,18.75
2018-09-12T08:58:21.116Z,18.78
2018-09-12T09:00:49.661Z,18.92
2018-09-12T09:03:18.315Z,19.06
2018-09-12T09:05:46.880Z,19.22
2018-09-12T09:08:15.822Z,19.31
2018-09-12T09:10:44.349Z,19.29
2018-09-12T09:13:12.877Z,19.37
2018-09-12T09:15:41.443Z,19.51
2018-09-12T09:18:10.317Z,19.57
2018-09-12T09:20:38.893Z,19.69
2018-09-12T09:23:07.522Z,19.81
2018-09-12T09:25:36.084Z,20.31
2018-09-12T09:28:04.712Z,20.35
2018-09-12T09:30:34.131Z,20.33
2018-09-12T09:33:02.711Z,21.11
2018-09-12T09:35:31.796Z,20.69
2018-09-12T09:38:00.147Z,21.33
2018-09-12T09:40:28.704Z,21.04
2018-09-12T09:42:57.217Z,21.75
2018-09-12T09:45:25.755Z,21.25
2018-09-12T09:47:54.359Z,21.12
2018-09-12T09:50:22.852Z,21.20
2018-09-12T09:52:51.357Z,21.28
2018-09-12T09:55:19.936Z,21.43
2018-09-12T09:57:48.436Z,21.62
2018-09-12T10:00:22.326Z,21.72
2018-09-12T10:02:56.140Z,21.84
2018-09-12T10:05:24.760Z,21.93
2018-09-12T10:08:58.237Z,22.08
2018-09-12T10:11:26.808Z,22.56
2018-09-12T10:13:55.329Z,22.86
2018-09-12T10:16:24.205Z,22.71
2018-09-12T10:18:52.732Z,22.72
2018-09-12T10:21:21.272Z,22.90
2018-09-12T10:23:49.809Z,23.08
2018-09-12T10:26:18.733Z,23.46
2018-09-12T10:28:47.255Z,23.97
2018-09-12T10:31:15.819Z,23.70
2018-09-12T10:33:44.435Z,24.06
2018-09-12T10:36:12.985Z,23.90
2018-09-12T10:38:41.492Z,24.17
2018-09-12T10:41:10.108Z,24.22
2018-09-12T10:43:38.600Z,24.35
2018-09-12T10:46:07.153Z,24.61
2018-09-12T10:48:35.664Z,24.80
2018-09-12T10:51:04.192Z,24.60
2018-09-12T10:53:32.844Z,24.82
2018-09-12T10:56:01.405Z,24.96
2018-09-12T10:58:30.231Z,24.98
2018-09-12T11:00:58.735Z,24.98
2018-09-12T11:03:27.279Z,25.03
2018-09-12T11:05:55.786Z,24.81
2018-09-12T11:08:24.340Z,25.38
2018-09-12T11:10:52.857Z,25.33
2018-09-12T11:13:21.393Z,25.40
2018-09-12T11:15:49.913Z,25.93
2018-09-12T11:18:18.444Z,25.75
2018-09-12T11:20:46.951Z,25.72
2018-09-12T11:23:15.484Z,26.12
2018-09-12T11:25:44.034Z,25.96
2018-09-12T11:28:12.569Z,26.26
2018-09-12T11:30:41.069Z,26.39
2018-09-12T11:33:09.606Z,26.08
2018-09-12T11:35:45.305Z,26.64
2018-09-12T11:38:16.887Z,26.35
2018-09-12T11:40:45.974Z,26.15
2018-09-12T11:43:16.009Z,26.25
2018-09-12T11:45:50.458Z,26.50
2018-09-12T11:48:24.973Z,26.47
2018-09-12T11:50:57.495Z,26.92
2018-09-12T11:53:46.755Z,26.85
2018-09-12T11:56:28.252Z,27.12
2018-09-12T11:58:58.812Z,26.94
2018-09-12T12:01:27.334Z,26.68
2018-09-12T12:03:55.949Z,27.16
2018-09-12T12:06:24.539Z,27.05
2018-09-12T12:08:53.102Z,26.90
2018-09-12T12:11:26.287Z,27.46
2018-09-12T12:13:59.237Z,27.21
2018-09-12T12:16:28.351Z,27.44
2018-09-12T12:19:01.839Z,27.60
2018-09-12T12:21:33.547Z,27.46
2018-09-12T12:24:07.793Z,27.39
2018-09-12T12:26:40.456Z,27.76
2018-09-12T12:29:09.351Z,27.63
2018-09-12T12:31:46.436Z,27.81
2018-09-12T12:34:18.396Z,28.10
2018-09-12T12:36:47.466Z,27.65
2018-09-12T12:39:16.148Z,27.50
2018-09-12T12:41:46.272Z,27.79
2018-09-12T12:44:18.610Z,28.06
2018-09-12T12:46:52.967Z,27.92
2018-09-12T12:49:26.369Z,27.99
2018-09-12T12:51:56.189Z,28.25
2018-09-12T12:54:29.830Z,27.90
2018-09-12T12:57:00.536Z,28.54
2018-09-12T12:59:31.735Z,28.28
2018-09-12T13:02:03.615Z,28.32
2018-09-12T13:04:34.614Z,28.25
2018-09-12T13:07:06.118Z,28.04
2018-09-12T13:09:40.381Z,27.91
2018-09-12T13:12:15.133Z,27.99
2018-09-12T13:14:46.611Z,28.16
2018-09-12T13:17:18.067Z,28.40
2018-09-12T13:19:49.134Z,28.35
2018-09-12T13:22:21.447Z,28.27
2018-09-12T13:24:55.506Z,28.56
2018-09-12T13:27:28.176Z,28.42
2018-09-12T13:29:57.381Z,28.16
2018-09-12T13:32:27.745Z,28.57
2018-09-12T13:35:02.064Z,28.87
2018-09-12T13:37:30.776Z,28.59
2018-09-12T13:40:05.708Z,28.93
2018-09-12T13:42:38.677Z,28.50
2018-09-12T13:45:08.693Z,28.54
2018-09-12T13:47:49.850Z,28.65
2018-09-12T13:50:35.949Z,28.63
2018-09-12T13:53:13.224Z,28.47
2018-09-12T13:55:48.056Z,28.71
2018-09-12T13:58:26.352Z,28.74
2018-09-12T14:00:58.298Z,28.84
2018-09-12T14:03:27.899Z,28.95
2018-09-12T14:06:04.547Z,29.09
2018-09-12T14:08:41.269Z,28.77
2018-09-12T14:11:20.410Z,29.25
2018-09-12T14:13:52.575Z,29.12
2018-09-12T14:16:25.683Z,28.90
2018-09-12T14:19:00.341Z,29.22
2018-09-12T14:21:33.348Z,29.32
2018-09-12T14:24:03.812Z,29.12
2018-09-12T14:26:36.451Z,29.27
2018-09-12T14:29:13.841Z,29.14
2018-09-12T14:31:47.040Z,29.03
2018-09-12T14:34:19.003Z,29.00
2018-09-12T14:36:49.181Z,29.07
2018-09-12T14:39:25.211Z,29.57
2018-09-12T14:41:57.920Z,29.24
2018-09-12T14:44:33.958Z,29.34
2018-09-12T14:47:05.785Z,29.44
2018-09-12T14:49:36.711Z,29.60
2018-09-12T14:52:06.713Z,29.56
2018-09-12T14:54:37.662Z,29.64
2018-09-12T14:57:14.540Z,30.22
2018-09-12T14:59:45.055Z,30.17
2018-09-12T15:02:15.385Z,30.04
2018-09-12T15:04:46.199Z,30.19
2018-09-12T15:07:14.896Z,30.32
2018-09-12T15:09:47.986Z,30.70
2018-09-12T15:12:19.430Z,30.24
2018-09-12T15:14:51.344Z,30.25
2018-09-12T15:17:23.276Z,30.25
2018-09-12T15:19:56.981Z,30.35
2018-09-12T15:22:31.832Z,30.90
2018-09-12T15:25:00.716Z,30.89
2018-09-12T15:27:30.167Z,31.24
2018-09-12T15:29:58.760Z,30.87
2018-09-12T15:32:28.381Z,31.35
2018-09-12T15:34:57.206Z,31.62
2018-09-12T15:37:26.047Z,31.84
2018-09-12T15:39:54.974Z,31.22
2018-09-12T15:42:23.598Z,30.55
2018-09-12T15:44:52.137Z,31.24
2018-09-12T15:47:20.744Z,31.10
2018-09-12T15:49:49.253Z,30.91
2018-09-12T15:52:18.497Z,31.06
2018-09-12T15:54:50.537Z,31.32
2018-09-12T15:57:19.508Z,30.73
2018-09-12T15:59:48.286Z,31.56
2018-09-12T16:02:16.821Z,30.99
2018-09-12T16:04:47.190Z,30.59
2018-09-12T16:07:19.718Z,30.44
2018-09-12T16:09:49.958Z,30.65
2018-09-12T16:12:22.272Z,30.74
2018-09-12T16:14:55.387Z,30.47
2018-09-12T16:17:24.097Z,30.31
2018-09-12T16:19:52.657Z,30.10
2018-09-12T16:22:22.106Z,30.58
2018-09-12T16:24:50.694Z,30.54
2018-09-12T16:27:19.673Z,30.41
2018-09-12T16:29:54.329Z,30.36
2018-09-12T16:32:29.709Z,30.57
2018-09-12T16:35:02.787Z,30.46
2018-09-12T16:37:37.009Z,30.16
2018-09-12T16:40:09.698Z,29.75
2018-09-12T16:42:41.148Z,29.77
2018-09-12T16:45:12.410Z,30.28
2018-09-12T16:47:44.529Z,29.96
2018-09-12T16:50:19.713Z,29.78
2018-09-12T16:52:53.834Z,29.32
2018-09-12T16:55:25.354Z,29.23
2018-09-12T16:57:54.319Z,29.16
2018-09-12T17:00:28.291Z,29.04
2018-09-12T17:03:02.074Z,28.72
2018-09-12T17:05:36.743Z,28.26
2018-09-12T17:08:08.301Z,27.75
2018-09-12T17:10:41.965Z,27.86
2018-09-12T17:13:12.055Z,27.50
2018-09-12T17:15:45.825Z,27.33
2018-09-12T17:18:19.073Z,27.48
2018-09-12T17:20:50.091Z,27.34
2018-09-12T17:23:25.796Z,27.30
2018-09-12T17:25:59.384Z,26.95
2018-09-12T17:28:29.491Z,26.82
2018-09-12T17:31:04.290Z,26.51
2018-09-12T17:33:38.925Z,26.36
2018-09-12T17:36:07.667Z,26.21
2018-09-12T17:38:37.523Z,25.95
2018-09-12T17:41:07.328Z,25.83
2018-09-12T17:43:39.045Z,25.78
2018-09-12T17:46:10.836Z,25.53
2018-09-12T17:48:42.058Z,25.47
2018-09-12T17:51:12.936Z,25.28
2018-09-12T17:53:45.474Z,25.09
2018-09-12T17:56:17.342Z,25.00
2018-09-12T17:58:45.889Z,24.84
2018-09-12T18:01:14.457Z,24.65
2018-09-12T18:03:43.013Z,24.62
2018-09-12T18:06:11.542Z,24.50
2018-09-12T18:08:40.055Z,24.42
2018-09-12T18:11:08.634Z,24.38
2018-09-12T18:13:37.123Z,24.34
2018-09-12T18:16:11.706Z,24.15
2018-09-12T18:18:40.436Z,24.07
2018-09-12T18:21:08.973Z,23.92
2018-09-12T18:23:37.484Z,23.89
2018-09-12T18:26:06.114Z,23.83
2018-09-12T18:28:34.648Z,23.51
2018-09-12T18:31:03.206Z,23.36
2018-09-12T18:33:31.714Z,23.19
2018-09-12T18:36:00.434Z,23.22
2018-09-12T18:38:29.057Z,23.13
2018-09-12T18:40:57.552Z,23.06
2018-09-12T18:43:28.047Z,23.05
2018-09-12T18:45:56.676Z,22.93
2018-09-12T18:48:25.261Z,22.87
2018-09-12T18:50:54.294Z,22.59
2018-09-12T18:53:23.592Z,22.27
2018-09-12T18:55:54.385Z,22.07
2018-09-12T18:58:24.992Z,22.21
2018-09-12T19:00:53.884Z,22.22
2018-09-12T19:03:22.400Z,21.89
2018-09-12T19:08:24.844Z,21.73
2018-09-12T19:10:53.415Z,21.80
2018-09-12T19:13:25.272Z,21.53
2018-09-12T19:16:01.532Z,21.29
2018-09-12T19:18:39.772Z,21.21
2018-09-12T19:21:17.193Z,21.12
2018-09-12T19:23:46.338Z,20.80
2018-09-12T19:26:14.840Z,20.74
2018-09-12T19:28:43.909Z,20.73
2018-09-12T19:31:13.424Z,20.15
2018-09-12T19:33:43.918Z,20.26
2018-09-12T19:36:12.495Z,20.36
2018-09-12T19:38:44.393Z,19.23
2018-09-12T19:41:15.209Z,19.76
2018-09-12T19:43:44.505Z,20.11
2018-09-12T19:46:13.106Z,19.71
2018-09-12T19:48:42.065Z,19.61
2018-09-12T19:51:16.414Z,19.33
2018-09-12T19:53:51.643Z,19.39
2018-09-12T19:56:22.068Z,19.50
2018-09-12T19:58:51.637Z,19.39
2018-09-12T20:01:20.157Z,19.30
2018-09-12T20:03:48.724Z,19.75
2018-09-12T20:06:17.272Z,19.46
2018-09-12T20:08:45.892Z,19.42
2018-09-12T20:11:14.393Z,19.23
2018-09-12T20:13:44.982Z,19.08
2018-09-12T20:16:13.853Z,19.29
2018-09-12T20:18:59.247Z,18.74
2018-09-12T20:21:35.759Z,18.69
2018-09-12T20:24:06.710Z,18.51
2018-09-12T20:26:46.656Z,18.46
2018-09-12T20:29:15.379Z,18.80
2018-09-12T20:31:48.593Z,18.10
2018-09-12T20:34:17.562Z,17.81
2018-09-12T20:36:46.897Z,18.21
2018-09-12T20:39:15.464Z,18.18
2018-09-12T20:41:49.188Z,18.39
2018-09-12T20:44:19.865Z,18.34
2018-09-12T20:46:48.523Z,18.42
2018-09-12T20:49:18.624Z,18.44
2018-09-12T20:51:50.306Z,18.45
2018-09-12T20:54:22.008Z,18.40
2018-09-12T20:56:54.056Z,18.47
2018-09-12T20:59:26.055Z,18.38
2018-09-12T21:01:56.491Z,17.89
2018-09-12T21:04:29.809Z,17.83
2018-09-12T21:07:03.380Z,17.80
2018-09-12T21:09:36.361Z,17.96
2018-09-12T21:12:07.240Z,18.15
2018-09-12T21:14:38.016Z,18.17
2018-09-12T21:17:08.369Z,17.93
2018-09-12T21:19:37.988Z,17.99
2018-09-12T21:22:08.400Z,18.10
2018-09-12T21:24:39.850Z,18.22
2018-09-12T21:27:10.341Z,17.28
2018-09-12T21:29:41.234Z,17.12
2018-09-12T21:32:11.425Z,17.03
2018-09-12T21:34:40.021Z,17.26
2018-09-12T21:37:14.955Z,17.60
2018-09-12T21:39:49.619Z,17.18
2018-09-12T21:43:27.031Z,17.50
2018-09-12T21:46:01.340Z,17.64
2018-09-12T21:48:35.699Z,17.80
2018-09-12T21:51:09.327Z,17.67
2018-09-12T21:53:42.397Z,18.01
2018-09-12T21:56:17.205Z,18.32
2018-09-12T21:58:51.163Z,18.31
2018-09-12T22:01:26.520Z,18.33
2018-09-12T22:04:00.147Z,18.82
2018-09-12T22:06:34.508Z,19.00
2018-09-12T22:09:11.373Z,19.01
2018-09-12T22:11:46.557Z,19.06
2018-09-12T22:14:20.185Z,19.04
2018-09-12T22:16:55.201Z,19.08
2018-09-12T22:19:30.006Z,19.11
2018-09-12T22:22:06.130Z,19.06
2018-09-12T22:24:41.616Z,18.91
2018-09-12T22:27:17.566Z,18.75
2018-09-12T22:29:52.548Z,18.67
2018-09-12T22:32:27.259Z,18.55
2018-09-12T22:35:02.241Z,18.41
2018-09-12T22:37:36.879Z,18.41
2018-09-12T22:40:11.518Z,18.12
2018-09-12T22:42:46.019Z,17.93
2018-09-12T22:45:20.884Z,18.08
2018-09-12T22:47:56.043Z,18.09
2018-09-12T22:50:30.697Z,18.28
2018-09-12T22:53:06.327Z,17.95
2018-09-12T22:55:43.644Z,18.05
2018-09-12T22:58:18.370Z,18.06
2018-09-12T23:00:53.517Z,18.09
2018-09-12T23:03:28.321Z,18.00
2018-09-12T23:06:03.679Z,18.02
2018-09-12T23:08:38.407Z,17.68
2018-09-12T23:11:12.914Z,17.65
2018-09-12T23:13:47.307Z,17.74
2018-09-12T23:16:22.181Z,17.79
2018-09-12T23:18:57.631Z,17.69
2018-09-12T23:21:34.408Z,17.83
2018-09-12T23:24:09.931Z,17.79
2018-09-12T23:26:44.668Z,17.41
2018-09-12T23:29:21.415Z,17.17
2018-09-12T23:31:56.813Z,17.35
2018-09-12T23:34:25.524Z,17.42
2018-09-12T23:36:54.067Z,17.06
2018-09-12T23:39:22.560Z,17.12
2018-09-12T23:41:51.092Z,17.10
2018-09-12T23:44:19.593Z,17.19
2018-09-12T23:46:52.026Z,17.13
2018-09-12T23:49:20.684Z,17.16
2018-09-12T23:51:49.292Z,16.96
2018-09-12T23:54:17.796Z,17.20
2018-09-12T23:56:46.353Z,17.15
2018-09-12T23:59:14.863Z,17.08
